createdAt,value
2023-05-25T00:00:16.934Z,100164.28
2023-05-25T00:02:44.808Z,100105.38
2023-05-25T00:05:11.865Z,100150.19
2023-05-25T00:07:39.296Z,100158.34
2023-05-25T00:10:07.184Z,100165.91
2023-05-25T00:12:34.417Z,100165.03
2023-05-25T00:15:01.338Z,100124.34
2023-05-25T00:17:30.217Z,100182.75
2023-05-25T00:19:58.381Z,100181.75
2023-05-25T00:22:29.279Z,100162.34
2023-05-25T00:24:56.309Z,100184.44
2023-05-25T00:27:23.250Z,100182.78
2023-05-25T00:29:50.073Z,100186.34
2023-05-25T00:32:16.958Z,100175.72
2023-05-25T00:34:43.908Z,100187.47
2023-05-25T00:37:10.824Z,100194.34
2023-05-25T00:39:37.711Z,100185.00
2023-05-25T00:42:05.333Z,100190.31
2023-05-25T00:44:32.309Z,100187.47
2023-05-25T00:46:59.751Z,100204.63
2023-05-25T00:49:27.017Z,100100.78
2023-05-25T00:51:53.867Z,100153.53
2023-05-25T00:54:20.839Z,100199.31
2023-05-25T00:56:57.781Z,100201.78
2023-05-25T00:59:45.942Z,100203.41
2023-05-25T01:02:16.489Z,100195.34
2023-05-25T01:04:45.771Z,100152.41
2023-05-25T01:07:16.020Z,100190.00
2023-05-25T01:09:44.717Z,100183.50
2023-05-25T01:12:11.889Z,100134.25
2023-05-25T01:14:40.825Z,100165.41
2023-05-25T01:17:08.091Z,100200.97
2023-05-25T01:19:37.453Z,100195.63
2023-05-25T01:22:08.251Z,100160.50
2023-05-25T01:24:43.310Z,100145.34
2023-05-25T01:27:21.016Z,100191.03
2023-05-25T01:29:47.854Z,100174.34
2023-05-25T01:32:14.885Z,100196.34
2023-05-25T01:34:42.169Z,100187.25
2023-05-25T01:37:09.020Z,100159.03
2023-05-25T01:39:35.874Z,100183.97
2023-05-25T01:42:02.779Z,100179.13
2023-05-25T01:44:30.002Z,100185.63
2023-05-25T01:47:17.325Z,100151.50
2023-05-25T01:49:50.619Z,100180.97
2023-05-25T01:52:27.119Z,100177.00
2023-05-25T01:54:57.473Z,100155.16
2023-05-25T01:57:24.285Z,100188.72
2023-05-25T01:59:51.224Z,100189.91
2023-05-25T02:02:18.820Z,100155.97
2023-05-25T02:04:46.232Z,100157.03
2023-05-25T02:07:13.477Z,100193.28
2023-05-25T02:09:40.393Z,100195.66
2023-05-25T02:12:07.470Z,100204.66
2023-05-25T02:14:34.429Z,100204.66
2023-05-25T02:17:02.406Z,100202.44
2023-05-25T02:19:29.849Z,100203.72
2023-05-25T02:21:56.879Z,100194.72
2023-05-25T02:24:24.863Z,100192.81
2023-05-25T02:26:52.008Z,100191.66
2023-05-25T02:29:18.855Z,100160.25
2023-05-25T02:31:45.841Z,100191.25
2023-05-25T02:34:13.945Z,100175.13
2023-05-25T02:36:44.009Z,100191.66
2023-05-25T02:39:11.337Z,100163.56
2023-05-25T02:41:38.584Z,100185.00
2023-05-25T02:44:06.360Z,100157.88
2023-05-25T02:46:34.083Z,100161.16
2023-05-25T02:49:01.167Z,100134.88
2023-05-25T02:51:28.738Z,100142.69
2023-05-25T02:53:55.795Z,100185.34
2023-05-25T02:56:23.154Z,100189.69
2023-05-25T02:58:50.375Z,100174.06
2023-05-25T03:01:19.021Z,100191.31
2023-05-25T03:03:47.347Z,100190.50
2023-05-25T03:06:15.049Z,100147.53
2023-05-25T03:08:41.929Z,100133.41
2023-05-25T03:11:08.720Z,100167.34
2023-05-25T03:13:35.975Z,100157.53
2023-05-25T03:16:02.792Z,100186.28
2023-05-25T03:18:29.567Z,100190.31
2023-05-25T03:20:56.782Z,100187.75
2023-05-25T03:23:23.634Z,100180.34
2023-05-25T03:25:51.063Z,100181.19
2023-05-25T03:28:17.941Z,100151.00
2023-05-25T03:30:44.752Z,100183.56
2023-05-25T03:33:13.977Z,100172.34
2023-05-25T03:35:41.159Z,100177.69
2023-05-25T03:38:08.139Z,100189.88
2023-05-25T03:40:35.064Z,100168.88
2023-05-25T03:43:02.129Z,100184.47
2023-05-25T03:45:29.227Z,100164.47
2023-05-25T03:47:56.539Z,100140.50
2023-05-25T03:50:23.465Z,100176.19
2023-05-25T03:52:50.360Z,100148.47
2023-05-25T03:55:17.352Z,100188.84
2023-05-25T03:57:44.345Z,100186.09
2023-05-25T04:00:11.798Z,100180.44
2023-05-25T04:02:38.671Z,100165.81
2023-05-25T04:05:05.932Z,100152.25
2023-05-25T04:07:32.805Z,100190.59
2023-05-25T04:09:59.853Z,100202.31
2023-05-25T04:12:27.441Z,100164.81
2023-05-25T04:14:54.257Z,100182.34
2023-05-25T04:17:25.019Z,100219.44
2023-05-25T04:19:52.720Z,100188.66
2023-05-25T04:22:19.671Z,100172.72
2023-05-25T04:24:46.894Z,100154.75
2023-05-25T04:27:14.507Z,100204.78
2023-05-25T04:29:41.964Z,100197.28
2023-05-25T04:32:15.035Z,100200.50
2023-05-25T04:34:42.535Z,100200.13
2023-05-25T04:37:10.045Z,100219.19
2023-05-25T04:39:36.987Z,100217.06
2023-05-25T04:42:04.846Z,100141.03
2023-05-25T04:44:32.707Z,100224.88
2023-05-25T04:47:02.799Z,100186.56
2023-05-25T04:49:29.747Z,100220.09
2023-05-25T04:51:56.678Z,100220.47
2023-05-25T04:54:23.632Z,100230.06
2023-05-25T04:56:50.618Z,100197.69
2023-05-25T04:59:17.387Z,100191.19
2023-05-25T05:01:44.954Z,100226.78
2023-05-25T05:04:12.018Z,100212.69
2023-05-25T05:06:39.184Z,100223.47
2023-05-25T05:09:06.133Z,100231.59
2023-05-25T05:11:32.951Z,100215.91
2023-05-25T05:13:59.755Z,100230.88
2023-05-25T05:16:27.029Z,100214.81
2023-05-25T05:18:53.866Z,100219.19
2023-05-25T05:21:22.150Z,100240.72
2023-05-25T05:23:50.197Z,100231.00
2023-05-25T05:26:17.080Z,100237.88
2023-05-25T05:28:43.848Z,100238.34
2023-05-25T05:31:12.545Z,100244.84
2023-05-25T05:33:39.787Z,100206.69
2023-05-25T05:36:06.981Z,100219.09
2023-05-25T05:38:33.966Z,100257.50
2023-05-25T05:41:01.438Z,100249.81
2023-05-25T05:43:28.246Z,100221.59
2023-05-25T05:45:55.149Z,100242.00
2023-05-25T05:48:22.958Z,100235.94
2023-05-25T05:50:49.862Z,100251.03
2023-05-25T05:53:16.965Z,100255.19
2023-05-25T05:55:43.959Z,100247.09
2023-05-25T05:58:10.954Z,100267.56
2023-05-25T06:00:37.859Z,100259.22
2023-05-25T06:03:04.749Z,100255.84
2023-05-25T06:05:31.708Z,100233.03
2023-05-25T06:07:58.777Z,100248.19
2023-05-25T06:10:25.622Z,100265.28
2023-05-25T06:12:52.894Z,100256.94
2023-05-25T06:15:20.286Z,100278.41
2023-05-25T06:17:47.169Z,100281.53
2023-05-25T06:20:15.240Z,100269.59
2023-05-25T06:22:42.795Z,100266.53
2023-05-25T06:25:10.619Z,100274.50
2023-05-25T06:27:37.552Z,100279.72
2023-05-25T06:30:05.080Z,100281.25
2023-05-25T06:32:31.962Z,100280.25
2023-05-25T06:34:58.803Z,100281.50
2023-05-25T06:37:26.196Z,100288.94
2023-05-25T06:39:53.961Z,100281.22
2023-05-25T06:42:23.094Z,100275.59
2023-05-25T06:44:50.127Z,100260.50
2023-05-25T06:47:17.068Z,100255.53
2023-05-25T06:49:43.974Z,100283.69
2023-05-25T06:52:11.110Z,100284.22
2023-05-25T06:54:37.959Z,100280.56
2023-05-25T06:57:04.909Z,100282.50
2023-05-25T06:59:32.117Z,100293.06
2023-05-25T07:02:00.261Z,100289.09
2023-05-25T07:04:28.700Z,100304.31
2023-05-25T07:06:55.592Z,100286.56
2023-05-25T07:09:22.537Z,100290.50
2023-05-25T07:11:49.377Z,100299.84
2023-05-25T07:14:17.654Z,100290.28
2023-05-25T07:16:45.339Z,100289.94
2023-05-25T07:19:12.276Z,100300.94
2023-05-25T07:21:39.135Z,100299.00
2023-05-25T07:24:06.103Z,100293.19
2023-05-25T07:26:33.576Z,100266.09
2023-05-25T07:29:01.047Z,100302.84
2023-05-25T07:31:28.023Z,100307.78
2023-05-25T07:33:55.768Z,100307.47
2023-05-25T07:36:25.127Z,100306.41
2023-05-25T07:38:52.047Z,100235.38
2023-05-25T07:41:18.918Z,100311.00
2023-05-25T07:43:46.348Z,100311.72
2023-05-25T07:46:13.140Z,100254.72
2023-05-25T07:48:39.937Z,100326.34
2023-05-25T07:51:07.284Z,100333.50
2023-05-25T07:53:34.145Z,100329.19
2023-05-25T07:56:00.953Z,100334.94
2023-05-25T07:58:28.140Z,100331.63
2023-05-25T08:00:55.050Z,100323.94
2023-05-25T08:03:31.748Z,100334.63
2023-05-25T08:06:07.774Z,100320.34
2023-05-25T08:08:35.134Z,100337.38
2023-05-25T08:11:01.977Z,100340.66
2023-05-25T08:13:28.956Z,100320.94
2023-05-25T08:15:55.730Z,100350.69
2023-05-25T08:18:22.589Z,100339.25
2023-05-25T08:20:49.599Z,100341.28
2023-05-25T08:23:16.458Z,100347.06
2023-05-25T08:25:43.406Z,100315.28
2023-05-25T08:30:55.419Z,100349.66
2023-05-25T08:33:25.139Z,100353.41
2023-05-25T08:35:52.993Z,100356.19
2023-05-25T08:38:20.097Z,100323.63
2023-05-25T08:40:46.905Z,100367.16
2023-05-25T08:43:13.689Z,100354.69
2023-05-25T08:45:43.810Z,100354.94
2023-05-25T08:48:23.861Z,100342.75
2023-05-25T08:51:05.192Z,100345.00
2023-05-25T08:53:35.174Z,100354.94
2023-05-25T08:56:02.799Z,100319.25
2023-05-25T08:58:33.825Z,100341.50
2023-05-25T09:01:03.302Z,100331.72
2023-05-25T09:03:31.164Z,100348.56
2023-05-25T09:05:58.712Z,100339.13
2023-05-25T09:08:25.723Z,100353.88
2023-05-25T09:10:52.580Z,100358.38
2023-05-25T09:13:22.385Z,100342.72
2023-05-25T09:15:50.306Z,100347.16
2023-05-25T09:18:17.216Z,100345.84
2023-05-25T09:20:46.621Z,100331.06
2023-05-25T09:23:15.246Z,100345.41
2023-05-25T09:25:42.218Z,100326.50
2023-05-25T09:28:25.654Z,100321.19
2023-05-25T09:30:54.142Z,100335.09
2023-05-25T09:33:21.369Z,100345.75
2023-05-25T09:35:48.461Z,100340.38
2023-05-25T09:38:16.334Z,100349.31
2023-05-25T09:40:44.048Z,100355.00
2023-05-25T09:43:17.328Z,100344.69
2023-05-25T09:45:49.298Z,100348.81
2023-05-25T09:48:16.204Z,100357.38
2023-05-25T09:50:43.325Z,100361.44
2023-05-25T09:53:10.480Z,100359.66
2023-05-25T09:55:51.975Z,100339.03
2023-05-25T09:58:21.430Z,100359.25
2023-05-25T10:00:48.531Z,100349.88
2023-05-25T10:03:16.021Z,100351.59
2023-05-25T10:05:42.914Z,100329.56
2023-05-25T10:08:09.927Z,100329.22
2023-05-25T10:10:36.783Z,100329.19
2023-05-25T10:13:03.652Z,100335.69
2023-05-25T10:15:30.522Z,100335.56
2023-05-25T10:17:57.367Z,100346.06
2023-05-25T10:20:26.139Z,100322.78
2023-05-25T10:23:13.293Z,100338.22
2023-05-25T10:25:48.090Z,100330.34
2023-05-25T10:28:28.536Z,100336.75
2023-05-25T10:30:57.084Z,100343.69
2023-05-25T10:33:23.718Z,100340.53
2023-05-25T10:36:02.504Z,100332.19
2023-05-25T10:38:36.144Z,100337.19
2023-05-25T10:41:03.015Z,100320.03
2023-05-25T10:43:29.883Z,100334.75
2023-05-25T10:45:57.548Z,100336.03
2023-05-25T10:48:25.263Z,100329.16
2023-05-25T10:50:52.202Z,100311.75
2023-05-25T10:53:21.425Z,100306.53
2023-05-25T10:56:01.251Z,100317.16
2023-05-25T10:58:29.088Z,100313.91
2023-05-25T11:00:59.938Z,100251.56
2023-05-25T11:03:45.559Z,100312.97
2023-05-25T11:06:18.368Z,100277.34
2023-05-25T11:08:55.534Z,100306.63
2023-05-25T11:11:23.234Z,100309.44
2023-05-25T11:13:50.411Z,100313.16
2023-05-25T11:16:21.579Z,100281.16
2023-05-25T11:18:53.388Z,100308.53
2023-05-25T11:21:24.231Z,100314.41
2023-05-25T11:23:55.412Z,100279.53
2023-05-25T11:26:26.680Z,100315.66
2023-05-25T11:28:54.232Z,100323.50
2023-05-25T11:31:37.514Z,100309.88
2023-05-25T11:34:06.719Z,100319.88
2023-05-25T11:36:35.910Z,100319.31
2023-05-25T11:39:11.609Z,100312.03
2023-05-25T11:41:48.608Z,100302.72
2023-05-25T11:44:15.409Z,100323.81
2023-05-25T11:46:43.876Z,100318.97
2023-05-25T11:49:11.230Z,100295.91
2023-05-25T11:51:38.166Z,100320.50
2023-05-25T11:54:05.077Z,100312.63
2023-05-25T11:56:35.631Z,100304.59
2023-05-25T11:59:02.817Z,100310.56
2023-05-25T12:01:34.613Z,100292.72
2023-05-25T12:04:05.279Z,100304.94
2023-05-25T12:06:37.004Z,100299.94
2023-05-25T12:09:05.667Z,100305.63
2023-05-25T12:11:38.576Z,100295.94
2023-05-25T12:14:06.972Z,100292.50
2023-05-25T12:16:34.924Z,100298.63
2023-05-25T12:19:02.184Z,100304.69
2023-05-25T12:21:29.090Z,100292.91
2023-05-25T12:23:55.978Z,100298.53
2023-05-25T12:26:23.729Z,100300.72
2023-05-25T12:29:06.816Z,100275.97
2023-05-25T12:34:20.386Z,100292.75
2023-05-25T12:36:54.138Z,100267.78
2023-05-25T12:39:30.068Z,100286.28
2023-05-25T12:41:57.987Z,100219.38
2023-05-25T12:44:27.802Z,100281.22
2023-05-25T12:46:55.777Z,100280.03
2023-05-25T12:49:26.742Z,100290.03
2023-05-25T12:51:53.603Z,100291.03
2023-05-25T12:54:40.234Z,100277.56
2023-05-25T12:57:07.890Z,100283.00
2023-05-25T12:59:37.876Z,100270.88
2023-05-25T13:02:08.517Z,100208.59
2023-05-25T13:04:36.270Z,100263.88
2023-05-25T13:07:03.609Z,100272.72
2023-05-25T13:09:31.274Z,100266.47
2023-05-25T13:11:58.306Z,100264.72
2023-05-25T13:14:25.567Z,100249.03
2023-05-25T13:16:52.958Z,100256.19
2023-05-25T13:19:20.923Z,100262.81
2023-05-25T13:21:49.435Z,100273.22
2023-05-25T13:24:19.873Z,100254.72
2023-05-25T13:26:49.215Z,100261.22
2023-05-25T13:29:17.678Z,100270.88
2023-05-25T13:31:44.727Z,100254.22
2023-05-25T13:34:11.885Z,100242.44
2023-05-25T13:36:38.749Z,100261.78
2023-05-25T13:39:05.725Z,100252.81
2023-05-25T13:41:32.658Z,100254.06
2023-05-25T13:43:59.512Z,100237.69
2023-05-25T13:46:34.325Z,100257.81
2023-05-25T13:49:03.505Z,100253.69
2023-05-25T13:51:30.706Z,100259.47
2023-05-25T13:53:57.592Z,100250.88
2023-05-25T13:56:24.506Z,100247.19
2023-05-25T13:58:52.124Z,100222.09
2023-05-25T14:01:19.045Z,100248.78
2023-05-25T14:03:46.517Z,100241.38
2023-05-25T14:06:13.826Z,100240.56
2023-05-25T14:08:40.733Z,100236.88
2023-05-25T14:11:07.504Z,100234.00
2023-05-25T14:13:36.653Z,100236.44
2023-05-25T14:16:03.995Z,100223.31
2023-05-25T14:18:31.091Z,100232.31
2023-05-25T14:20:58.289Z,100233.94
2023-05-25T14:23:25.132Z,100235.59
2023-05-25T14:25:52.163Z,100211.72
2023-05-25T14:28:19.154Z,100227.78
2023-05-25T14:30:46.011Z,100228.16
2023-05-25T14:33:14.718Z,100222.38
2023-05-25T14:35:43.085Z,100197.75
2023-05-25T14:38:10.351Z,100188.69
2023-05-25T14:40:37.163Z,100201.00
2023-05-25T14:43:04.314Z,100197.75
2023-05-25T14:45:31.103Z,100205.50
2023-05-25T14:48:11.917Z,100208.78
2023-05-25T14:50:44.677Z,100170.63
2023-05-25T14:53:11.956Z,100203.03
2023-05-25T14:55:38.774Z,100187.88
2023-05-25T14:58:05.731Z,100210.81
2023-05-25T15:00:32.664Z,100191.13
2023-05-25T15:02:59.709Z,100181.25
2023-05-25T15:05:26.675Z,100188.22
2023-05-25T15:07:54.907Z,100197.63
2023-05-25T15:10:21.705Z,100170.13
2023-05-25T15:12:48.577Z,100191.88
2023-05-25T15:15:15.583Z,100184.47
2023-05-25T15:17:42.486Z,100184.00
2023-05-25T15:20:09.925Z,100170.47
2023-05-25T15:22:36.965Z,100141.28
2023-05-25T15:25:04.488Z,100149.91
2023-05-25T15:27:32.660Z,100158.16
2023-05-25T15:29:59.555Z,100168.00
2023-05-25T15:32:26.406Z,100142.16
2023-05-25T15:34:53.391Z,100093.22
2023-05-25T15:37:20.242Z,100151.16
2023-05-25T15:39:47.043Z,100149.91
2023-05-25T15:42:13.894Z,100153.19
2023-05-25T15:44:41.211Z,100149.06
2023-05-25T15:47:08.036Z,100143.75
2023-05-25T15:49:37.357Z,100143.31
2023-05-25T15:52:04.593Z,100139.66
2023-05-25T15:54:31.505Z,100141.25
2023-05-25T15:56:58.473Z,100115.44
2023-05-25T15:59:25.306Z,100103.94
2023-05-25T16:01:52.210Z,100124.03
2023-05-25T16:07:04.027Z,100049.66
2023-05-25T16:09:31.658Z,100116.13
2023-05-25T16:11:58.528Z,100111.19
2023-05-25T16:14:25.448Z,100125.09
2023-05-25T16:16:52.264Z,100094.78
2023-05-25T16:19:19.122Z,100098.88
2023-05-25T16:21:46.082Z,100105.84
2023-05-25T16:24:13.023Z,100070.13
2023-05-25T16:26:39.807Z,100075.84
2023-05-25T16:29:26.268Z,100099.22
2023-05-25T16:31:54.964Z,100094.31
2023-05-25T16:34:22.192Z,100068.41
2023-05-25T16:36:49.198Z,100092.28
2023-05-25T16:39:16.053Z,100095.13
2023-05-25T16:41:42.984Z,100087.31
2023-05-25T16:44:11.624Z,100097.06
2023-05-25T16:46:38.704Z,100087.63
2023-05-25T16:49:05.986Z,100089.19
2023-05-25T16:54:18.314Z,100090.38
2023-05-25T16:56:45.150Z,100090.81
2023-05-25T16:59:11.935Z,100063.28
2023-05-25T17:01:39.023Z,100084.59
2023-05-25T17:04:05.926Z,100083.34
2023-05-25T17:06:33.105Z,100071.44
2023-05-25T17:09:01.086Z,100071.41
2023-05-25T17:11:28.263Z,100057.06
2023-05-25T17:13:55.282Z,100069.31
2023-05-25T17:16:22.688Z,100060.72
2023-05-25T17:18:49.518Z,100055.38
2023-05-25T17:21:16.470Z,100042.50
2023-05-25T17:23:43.685Z,100061.03
2023-05-25T17:26:10.465Z,100046.66
2023-05-25T17:28:37.623Z,100051.63
2023-05-25T17:31:04.856Z,100049.94
2023-05-25T17:33:31.659Z,100053.59
2023-05-25T17:35:58.513Z,100040.91
2023-05-25T17:38:26.532Z,100028.13
2023-05-25T17:40:53.389Z,100030.09
2023-05-25T17:43:20.356Z,100041.22
2023-05-25T17:45:47.632Z,100004.72
2023-05-25T17:48:14.622Z,100033.44
2023-05-25T17:50:41.484Z,100027.69
2023-05-25T17:53:08.595Z,100022.81
2023-05-25T17:55:35.514Z,100026.06
2023-05-25T17:58:02.305Z,100010.53
2023-05-25T18:00:31.053Z,100008.88
2023-05-25T18:02:57.884Z,100004.78
2023-05-25T18:05:24.740Z,100003.59
2023-05-25T18:07:51.973Z,99990.03
2023-05-25T18:10:18.763Z,99994.97
2023-05-25T18:12:49.293Z,99941.09
2023-05-25T18:15:16.336Z,99984.34
2023-05-25T18:17:43.280Z,99996.16
2023-05-25T18:20:10.973Z,99940.38
2023-05-25T18:22:37.943Z,99980.22
2023-05-25T18:25:05.503Z,99958.06
2023-05-25T18:27:32.335Z,99981.75
2023-05-25T18:29:59.386Z,99985.81
2023-05-25T18:32:26.261Z,99981.66
2023-05-25T18:34:53.859Z,99943.06
2023-05-25T18:37:23.487Z,99920.84
2023-05-25T18:39:50.700Z,99948.00
2023-05-25T18:42:17.509Z,99962.75
2023-05-25T18:44:44.529Z,99964.38
2023-05-25T18:47:11.924Z,99975.78
2023-05-25T18:49:38.760Z,99952.38
2023-05-25T18:52:06.790Z,99951.19
2023-05-25T18:54:33.768Z,99935.13
2023-05-25T18:57:01.728Z,99960.97
2023-05-25T18:59:28.935Z,99956.84
2023-05-25T19:01:56.089Z,99960.91
2023-05-25T19:04:23.229Z,99928.38
2023-05-25T19:06:50.250Z,99956.69
2023-05-25T19:09:17.033Z,99918.88
2023-05-25T19:11:43.839Z,99934.84
2023-05-25T19:14:10.828Z,99946.75
2023-05-25T19:16:37.694Z,99930.69
2023-05-25T19:19:05.157Z,99932.72
2023-05-25T19:21:32.250Z,99938.84
2023-05-25T19:23:59.258Z,99933.47
2023-05-25T19:26:26.220Z,99942.44
2023-05-25T19:28:53.369Z,99934.66
2023-05-25T19:31:21.634Z,99929.75
2023-05-25T19:33:48.639Z,99926.00
2023-05-25T19:36:15.541Z,99890.28
2023-05-25T19:38:42.597Z,99920.22
2023-05-25T19:41:09.395Z,99896.34
2023-05-25T19:43:36.322Z,99914.00
2023-05-25T19:46:03.313Z,99919.19
2023-05-25T19:48:30.233Z,99915.44
2023-05-25T19:50:57.910Z,99919.00
2023-05-25T19:53:24.824Z,99904.13
2023-05-25T19:55:51.703Z,99909.91
2023-05-25T19:58:18.951Z,99900.81
2023-05-25T20:00:45.948Z,99816.91
2023-05-25T20:03:12.944Z,99883.38
2023-05-25T20:05:40.404Z,99810.50
2023-05-25T20:08:07.312Z,99805.53
2023-05-25T20:10:39.031Z,99886.09
2023-05-25T20:13:07.552Z,99864.22
2023-05-25T20:15:34.735Z,99814.06
2023-05-25T20:18:02.338Z,99848.56
2023-05-25T20:20:29.286Z,99882.63
2023-05-25T20:22:56.585Z,99885.44
2023-05-25T20:25:23.455Z,99895.13
2023-05-25T20:27:50.445Z,99895.06
2023-05-25T20:30:17.494Z,99883.63
2023-05-25T20:32:44.399Z,99890.06
2023-05-25T20:35:11.921Z,99840.72
2023-05-25T20:37:38.905Z,99875.63
2023-05-25T20:40:06.966Z,99874.75
2023-05-25T20:45:18.366Z,99856.97
2023-05-25T20:47:45.262Z,99865.19
2023-05-25T20:50:12.141Z,99867.47
2023-05-25T20:52:38.985Z,99853.53
2023-05-25T20:55:06.129Z,99830.06
2023-05-25T20:57:33.066Z,99852.47
2023-05-25T21:02:44.429Z,99796.38
2023-05-25T21:05:11.461Z,99870.66
2023-05-25T21:07:57.459Z,99873.75
2023-05-25T21:10:24.239Z,99876.88
2023-05-25T21:12:51.271Z,99847.19
2023-05-25T21:15:18.176Z,99873.16
2023-05-25T21:17:45.087Z,99854.38
2023-05-25T21:20:12.057Z,99806.88
2023-05-25T21:22:39.016Z,99848.38
2023-05-25T21:25:06.634Z,99852.47
2023-05-25T21:27:33.527Z,99843.25
2023-05-25T21:32:45.133Z,99845.75
2023-05-25T21:35:12.025Z,99838.38
2023-05-25T21:37:38.905Z,99863.72
2023-05-25T21:40:06.981Z,99859.63
2023-05-25T21:42:33.778Z,99857.88
2023-05-25T21:45:00.685Z,99860.66
2023-05-25T21:47:27.791Z,99845.25
2023-05-25T21:49:56.285Z,99824.38
2023-05-25T21:52:23.508Z,99833.72
2023-05-25T21:54:50.519Z,99851.81
2023-05-25T21:57:17.328Z,99812.69
2023-05-25T21:59:44.246Z,99841.59
2023-05-25T22:04:38.670Z,99811.13
2023-05-25T22:07:05.619Z,99849.69
2023-05-25T22:09:32.552Z,99850.81
2023-05-25T22:11:59.366Z,99848.28
2023-05-25T22:14:26.187Z,99821.16
2023-05-25T22:16:53.256Z,99826.53
2023-05-25T22:19:20.142Z,99825.72
2023-05-25T22:21:46.944Z,99812.56
2023-05-25T22:24:13.834Z,99811.06
2023-05-25T22:26:40.711Z,99803.75
2023-05-25T22:29:07.581Z,99797.25
2023-05-25T22:31:34.638Z,99795.59
2023-05-25T22:34:01.456Z,99799.63
2023-05-25T22:36:28.236Z,99797.16
2023-05-25T22:38:55.084Z,99788.09
2023-05-25T22:41:21.874Z,99808.44
2023-05-25T22:43:48.814Z,99810.81
2023-05-25T22:46:15.759Z,99809.91
2023-05-25T22:48:43.956Z,99807.06
2023-05-25T22:51:10.832Z,99796.94
2023-05-25T22:53:37.697Z,99807.91
2023-05-25T22:56:04.554Z,99801.88
2023-05-25T22:58:31.358Z,99798.09
2023-05-25T23:03:42.938Z,99781.84
2023-05-25T23:06:09.813Z,99773.25
2023-05-25T23:08:36.619Z,99756.25
2023-05-25T23:11:03.517Z,99722.78
2023-05-25T23:13:30.277Z,99770.81
2023-05-25T23:15:57.098Z,99766.59
2023-05-25T23:18:23.951Z,99758.72
2023-05-25T23:20:50.967Z,99728.00
2023-05-25T23:23:17.777Z,99756.97
2023-05-25T23:25:45.284Z,99756.16
2023-05-25T23:28:12.276Z,99766.38
2023-05-25T23:30:40.262Z,99759.50
2023-05-25T23:33:08.660Z,99754.66
2023-05-25T23:35:35.631Z,99769.09
2023-05-25T23:38:02.634Z,99776.91
2023-05-25T23:40:29.741Z,99766.78
2023-05-25T23:42:56.648Z,99757.72
2023-05-25T23:45:23.477Z,99760.81
2023-05-25T23:47:50.414Z,99759.78
2023-05-25T23:50:17.497Z,99758.75
2023-05-25T23:52:45.209Z,99712.13
2023-05-25T23:55:12.725Z,99763.06
2023-05-25T23:57:40.208Z,99765.13
